Time;durP1;ratioP1;P1;durP2;ratioP2;P2;SDS_P1;SDS_P2;PMS_P1;PMS_P2;Temp;Humidity;BMP_temperature;BMP_pressure;BME280_temperature;BME280_humidity;BME280_pressure;Samples;Min_cycle;Max_cycle;Signal;HPM_P1;HPM_P2
2022/05/21 00:02:03;;;;;;;1.50;1.23;;;15.10;88.10;;;;;;4993514;28;20034;-67
2022/05/21 00:04:29;;;;;;;5.57;1.25;;;15.10;88.10;;;;;;4993361;28;20474;-67
2022/05/21 00:06:57;;;;;;;4.45;0.93;;;15.00;88.20;;;;;;4993730;28;20041;-68
2022/05/21 00:09:24;;;;;;;1.33;0.95;;;15.00;88.10;;;;;;4993689;28;20166;-67
2022/05/21 00:11:51;;;;;;;5.15;1.38;;;15.00;88.10;;;;;;4992393;28;20482;-67
2022/05/21 00:14:16;;;;;;;2.30;1.17;;;15.00;88.30;;;;;;4993763;28;20080;-67
2022/05/21 00:16:42;;;;;;;2.47;1.20;;;14.90;88.30;;;;;;4993537;28;20155;-67
2022/05/21 00:19:07;;;;;;;3.03;2.00;;;14.90;88.50;;;;;;4993154;28;20034;-67
2022/05/21 00:21:33;;;;;;;1.90;1.20;;;14.90;88.70;;;;;;4993725;28;20026;-68
2022/05/21 00:23:59;;;;;;;1.38;1.05;;;14.80;88.60;;;;;;4993475;28;20045;-67
2022/05/21 00:26:25;;;;;;;4.00;1.92;;;14.80;88.80;;;;;;4992848;28;20026;-67
2022/05/21 00:28:51;;;;;;;1.55;1.23;;;14.80;88.90;;;;;;4993443;28;20030;-67
2022/05/21 00:31:18;;;;;;;1.08;0.88;;;14.80;89.00;;;;;;4993038;28;20045;-67
2022/05/21 00:33:45;;;;;;;3.20;1.88;;;14.70;89.00;;;;;;4992790;28;20040;-67
2022/05/21 00:36:14;;;;;;;2.50;1.33;;;14.70;89.10;;;;;;4993512;28;20026;-67
2022/05/21 00:38:41;;;;;;;2.05;1.20;;;14.70;89.20;;;;;;4992800;28;20030;-67
2022/05/21 00:41:10;;;;;;;3.10;1.27;;;14.70;89.30;;;;;;4993085;28;20042;-67
2022/05/21 00:43:38;;;;;;;0.70;0.68;;;14.60;89.30;;;;;;4986564;28;20069;-67
2022/05/21 00:46:07;;;;;;;2.80;1.30;;;14.60;89.40;;;;;;4980014;28;20042;-68
2022/05/21 00:48:35;;;;;;;0.73;0.73;;;14.60;89.70;;;;;;4993946;28;20032;-68
2022/05/21 00:51:04;;;;;;;2.05;1.25;;;14.60;89.80;;;;;;4992966;28;20133;-67
2022/05/21 00:53:30;;;;;;;7.53;1.55;;;14.50;89.80;;;;;;4988429;28;20022;-68
2022/05/21 00:55:57;;;;;;;5.05;1.48;;;14.50;90.00;;;;;;4992557;28;20034;-67
2022/05/21 01:01:12;;;;;;;4.18;1.23;;;14.50;90.10;;;;;;4988586;28;20030;-67
2022/05/21 01:03:38;;;;;;;3.63;1.73;;;14.50;90.20;;;;;;4987249;28;20030;-68
2022/05/21 01:06:05;;;;;;;6.07;2.10;;;14.50;90.30;;;;;;4993204;28;20055;-67
2022/05/21 01:08:31;;;;;;;1.73;1.27;;;14.40;90.30;;;;;;4992857;28;20085;-68
2022/05/21 01:11:02;;;;;;;7.35;2.90;;;14.40;90.40;;;;;;4987356;28;20046;-67
2022/05/21 01:13:33;;;;;;;3.95;1.92;;;14.40;90.60;;;;;;4993060;28;20109;-67
2022/05/21 01:15:59;;;;;;;4.35;2.08;;;14.40;90.60;;;;;;4992402;28;20474;-68
2022/05/21 01:18:25;;;;;;;7.72;3.50;;;14.40;90.70;;;;;;4992844;28;20076;-67
2022/05/21 01:20:58;;;;;;;4.80;2.05;;;14.40;90.70;;;;;;4992318;28;20068;-68
2022/05/21 01:23:25;;;;;;;7.30;3.15;;;14.40;90.80;;;;;;4992801;28;20177;-67
2022/05/21 01:25:52;;;;;;;9.98;4.18;;;14.40;90.90;;;;;;4996928;28;20041;-67
2022/05/21 01:28:21;;;;;;;9.57;4.30;;;14.40;91.00;;;;;;4985513;28;20034;-67
2022/05/21 01:30:50;;;;;;;9.60;3.78;;;14.40;91.10;;;;;;4997030;28;20043;-67
2022/05/21 01:33:18;;;;;;;2.00;1.48;;;14.40;91.10;;;;;;4984361;28;20030;-67
2022/05/21 01:35:45;;;;;;;2.83;1.83;;;14.40;91.20;;;;;;4995733;28;20046;-67
2022/05/21 01:38:14;;;;;;;5.57;2.65;;;14.30;91.30;;;;;;4996695;28;20035;-67
2022/05/21 01:40:40;;;;;;;5.95;2.92;;;14.40;91.30;;;;;;4996688;28;20068;-68
2022/05/21 01:45:52;;;;;;;6.55;2.90;;;14.30;91.60;;;;;;4996275;28;20030;-67
2022/05/21 01:48:24;;;;;;;3.35;2.22;;;14.30;91.70;;;;;;4994747;28;20034;-67
2022/05/21 01:50:51;;;;;;;4.53;2.38;;;14.40;91.90;;;;;;4995100;28;20617;-67
2022/05/21 01:53:18;;;;;;;6.47;2.80;;;14.30;92.00;;;;;;4996317;28;20054;-67
2022/05/21 01:55:46;;;;;;;3.13;1.88;;;14.30;92.10;;;;;;4996026;28;20057;-67
2022/05/21 01:58:12;;;;;;;11.63;3.30;;;14.30;92.10;;;;;;4992010;28;20030;-68
2022/05/21 02:00:44;;;;;;;5.43;3.33;;;14.30;92.20;;;;;;4996006;28;20070;-67
2022/05/21 02:03:14;;;;;;;6.18;2.42;;;14.30;92.30;;;;;;4991859;28;20512;-67
2022/05/21 02:05:44;;;;;;;4.78;2.45;;;14.30;92.40;;;;;;4995733;28;20052;-67
2022/05/21 02:08:12;;;;;;;3.22;2.10;;;14.30;92.50;;;;;;4996019;28;20494;-67
2022/05/21 02:10:38;;;;;;;3.90;2.20;;;14.30;92.60;;;;;;4995482;28;20062;-68
2022/05/21 02:13:04;;;;;;;8.05;4.03;;;14.30;92.60;;;;;;4996006;28;20541;-67
2022/05/21 02:15:30;;;;;;;6.43;3.90;;;14.30;92.70;;;;;;4995618;28;20049;-67
2022/05/21 02:17:56;;;;;;;5.00;2.97;;;14.30;92.80;;;;;;4994944;28;20506;-67
2022/05/21 02:20:22;;;;;;;3.42;1.98;;;14.30;92.80;;;;;;4995737;28;20534;-67
2022/05/21 02:22:48;;;;;;;7.25;2.38;;;14.30;93.00;;;;;;4995364;28;20106;-67
2022/05/21 02:25:16;;;;;;;9.32;3.38;;;14.30;93.10;;;;;;4995119;28;20474;-67
2022/05/21 02:27:43;;;;;;;7.20;4.50;;;14.30;93.20;;;;;;4995410;28;20041;-67
2022/05/21 02:30:09;;;;;;;9.15;4.68;;;14.40;93.30;;;;;;4995466;28;20034;-67
2022/05/21 02:32:35;;;;;;;5.88;2.97;;;14.30;93.40;;;;;;4994758;28;20138;-67
2022/05/21 02:35:00;;;;;;;7.72;3.40;;;14.30;93.50;;;;;;4994931;28;20529;-68
2022/05/21 02:40:10;;;;;;;6.00;3.60;;;14.40;93.70;;;;;;4984652;28;20049;-67
2022/05/21 02:42:43;;;;;;;3.35;2.13;;;14.30;93.80;;;;;;4995528;28;20053;-68
2022/05/21 02:45:12;;;;;;;5.57;2.08;;;14.40;93.90;;;;;;4995664;28;20069;-68
2022/05/21 02:47:38;;;;;;;10.07;4.47;;;14.40;94.00;;;;;;4995244;28;20482;-68
2022/05/21 02:50:04;;;;;;;15.32;4.68;;;14.40;94.00;;;;;;4995446;28;20382;-68
2022/05/21 02:52:30;;;;;;;7.03;2.92;;;14.40;94.10;;;;;;4994275;28;20044;-68
2022/05/21 02:54:57;;;;;;;6.90;2.55;;;14.40;94.30;;;;;;4995250;28;20113;-67
2022/05/21 02:57:23;;;;;;;4.63;3.20;;;14.50;94.40;;;;;;4995112;28;20034;-67
2022/05/21 02:59:50;;;;;;;6.57;3.65;;;14.40;94.40;;;;;;4994753;28;20061;-67
2022/05/21 03:02:17;;;;;;;7.35;3.90;;;14.50;94.50;;;;;;4994965;28;20042;-68
2022/05/21 03:04:43;;;;;;;9.32;4.30;;;14.50;94.50;;;;;;4995207;28;20038;-68
2022/05/21 03:07:08;;;;;;;8.48;3.80;;;14.50;94.60;;;;;;4994403;28;20022;-67
2022/05/21 03:12:18;;;;;;;7.57;4.07;;;14.50;94.70;;;;;;4995069;28;20413;-67
2022/05/21 03:14:44;;;;;;;10.18;4.07;;;14.50;94.70;;;;;;4994505;28;20040;-67
2022/05/21 03:17:11;;;;;;;9.38;3.25;;;14.50;94.80;;;;;;4994957;28;20038;-67
2022/05/21 03:19:38;;;;;;;15.48;3.72;;;14.50;94.90;;;;;;4994738;28;20035;-67
2022/05/21 03:22:04;;;;;;;8.25;2.90;;;14.50;94.90;;;;;;4993484;28;20478;-67
2022/05/21 03:24:30;;;;;;;5.38;1.67;;;14.60;95.00;;;;;;4993597;28;20481;-68
2022/05/21 03:26:56;;;;;;;6.80;3.05;;;14.60;95.00;;;;;;4994945;28;20039;-67
2022/05/21 03:29:23;;;;;;;6.43;3.38;;;14.60;95.00;;;;;;4993938;28;20054;-68
2022/05/21 03:31:49;;;;;;;8.80;3.08;;;14.60;95.10;;;;;;4994893;28;20052;-67
2022/05/21 03:34:14;;;;;;;4.45;2.10;;;14.60;95.10;;;;;;4993750;28;20097;-68
2022/05/21 03:36:41;;;;;;;9.48;2.75;;;14.70;95.30;;;;;;4993657;28;20034;-67
2022/05/21 03:39:06;;;;;;;8.02;2.20;;;14.70;95.20;;;;;;4994627;28;20034;-67
2022/05/21 03:41:33;;;;;;;12.00;3.70;;;14.70;95.30;;;;;;4992309;28;20053;-68
2022/05/21 03:44:00;;;;;;;6.72;2.05;;;14.70;95.40;;;;;;4993162;28;20375;-67
2022/05/21 03:46:26;;;;;;;4.13;2.10;;;14.70;95.50;;;;;;4992421;28;20096;-67
2022/05/21 03:48:52;;;;;;;7.30;2.67;;;14.70;95.50;;;;;;4992174;28;20027;-67
2022/05/21 03:51:17;;;;;;;8.38;2.72;;;14.70;95.60;;;;;;4993709;28;20042;-67
2022/05/21 03:53:44;;;;;;;7.25;2.55;;;14.70;95.70;;;;;;4991012;28;20030;-68
2022/05/21 03:56:10;;;;;;;9.57;2.30;;;14.70;95.70;;;;;;4992051;28;20034;-68
2022/05/21 03:58:36;;;;;;;5.72;2.60;;;14.70;95.80;;;;;;4992879;28;20023;-67
2022/05/21 04:01:02;;;;;;;5.80;1.90;;;14.70;95.90;;;;;;4994267;28;20046;-67
2022/05/21 04:03:28;;;;;;;10.57;3.03;;;14.70;95.90;;;;;;4992808;28;20037;-68
2022/05/21 04:05:56;;;;;;;6.70;2.38;;;14.70;96.00;;;;;;4993678;28;20034;-68
2022/05/21 04:08:22;;;;;;;17.27;3.40;;;14.70;96.00;;;;;;4992463;28;20045;-68
2022/05/21 04:10:48;;;;;;;2.83;1.73;;;14.80;96.10;;;;;;4992055;28;20046;-68
2022/05/21 04:13:15;;;;;;;8.32;2.80;;;14.80;96.20;;;;;;4993997;28;20026;-68
2022/05/21 04:15:41;;;;;;;7.20;2.55;;;14.80;96.30;;;;;;4993812;28;20034;-68
2022/05/21 04:18:07;;;;;;;4.30;1.58;;;14.80;96.40;;;;;;4993216;28;20031;-68
2022/05/21 04:20:33;;;;;;;10.20;2.05;;;14.70;96.40;;;;;;4993785;28;20031;-68
2022/05/21 04:22:59;;;;;;;7.72;2.00;;;14.70;96.40;;;;;;4992675;28;20117;-69
2022/05/21 04:25:25;;;;;;;5.70;1.75;;;14.70;96.40;;;;;;4993065;28;20105;-68
2022/05/21 04:27:50;;;;;;;6.15;2.55;;;14.80;96.50;;;;;;4993605;28;20057;-68
2022/05/21 04:30:20;;;;;;;5.30;1.67;;;14.80;96.40;;;;;;4993024;28;20394;-68
2022/05/21 04:32:47;;;;;;;7.95;2.17;;;14.80;96.40;;;;;;4992923;28;20032;-68
2022/05/21 04:35:16;;;;;;;3.53;1.52;;;14.80;96.40;;;;;;4993361;28;20022;-68
2022/05/21 04:37:43;;;;;;;4.78;1.55;;;14.80;96.50;;;;;;4993163;28;20050;-67
2022/05/21 04:40:12;;;;;;;7.47;2.40;;;14.80;96.50;;;;;;4993431;28;20533;-66
2022/05/21 04:42:38;;;;;;;6.70;2.03;;;14.80;96.50;;;;;;4993245;28;20041;-66
2022/05/21 04:45:06;;;;;;;15.48;2.60;;;14.80;96.50;;;;;;4992699;28;20034;-65
2022/05/21 04:47:31;;;;;;;11.70;2.03;;;14.80;96.50;;;;;;4993407;28;20026;-66
2022/05/21 04:49:57;;;;;;;12.38;2.15;;;14.80;96.50;;;;;;4993674;28;20390;-67
2022/05/21 04:52:23;;;;;;;3.17;1.40;;;14.80;96.60;;;;;;4992437;28;20445;-70
2022/05/21 04:54:49;;;;;;;12.63;2.22;;;14.80;96.50;;;;;;4993427;28;20023;-68
2022/05/21 04:57:14;;;;;;;8.52;2.25;;;14.90;96.50;;;;;;4992276;28;20027;-70
2022/05/21 04:59:40;;;;;;;3.75;1.73;;;14.90;96.50;;;;;;4990943;28;21387;-69
2022/05/21 05:02:06;;;;;;;6.25;1.90;;;14.90;96.50;;;;;;4992947;28;20037;-69
2022/05/21 05:04:32;;;;;;;9.93;1.88;;;14.90;96.50;;;;;;4989505;28;20470;-68
2022/05/21 05:06:58;;;;;;;3.75;1.60;;;14.80;96.50;;;;;;4991215;28;20042;-69
2022/05/21 05:09:24;;;;;;;8.65;2.25;;;14.90;96.60;;;;;;4991617;28;20387;-67
2022/05/21 05:11:52;;;;;;;9.70;2.22;;;14.80;96.60;;;;;;4993017;28;20046;-68
2022/05/21 05:14:18;;;;;;;3.85;1.80;;;14.90;96.60;;;;;;4991899;28;20034;-66
2022/05/21 05:16:45;;;;;;;2.53;1.40;;;14.90;96.50;;;;;;4993256;28;20052;-66
2022/05/21 05:19:11;;;;;;;4.68;1.23;;;14.90;96.80;;;;;;4993201;28;20032;-69
2022/05/21 05:21:40;;;;;;;6.22;1.83;;;14.90;96.50;;;;;;4992031;28;20030;-68
2022/05/21 05:24:06;;;;;;;7.82;1.83;;;14.90;96.50;;;;;;4991794;28;20043;-70
2022/05/21 05:26:31;;;;;;;7.35;2.35;;;14.90;96.50;;;;;;4991979;28;20037;-70
2022/05/21 05:28:57;;;;;;;4.82;1.58;;;14.90;96.50;;;;;;4991027;28;20026;-69
2022/05/21 05:31:22;;;;;;;5.78;1.73;;;14.90;96.50;;;;;;4991513;28;20038;-70
2022/05/21 05:33:49;;;;;;;6.15;1.67;;;14.90;96.60;;;;;;4992018;28;20121;-70
2022/05/21 05:36:14;;;;;;;3.03;1.65;;;14.90;96.60;;;;;;4991352;28;20125;-70
2022/05/21 05:38:40;;;;;;;7.50;1.58;;;14.90;96.50;;;;;;4991595;28;20169;-70
2022/05/21 05:41:07;;;;;;;2.22;1.13;;;14.90;96.50;;;;;;4991154;28;20037;-69
2022/05/21 05:43:33;;;;;;;2.85;1.15;;;15.00;96.40;;;;;;4991929;28;20050;-69
2022/05/21 05:45:58;;;;;;;4.85;1.80;;;15.00;96.30;;;;;;4991762;28;20062;-70
2022/05/21 05:48:25;;;;;;;5.15;1.05;;;15.00;96.20;;;;;;4991156;28;20030;-69
2022/05/21 05:50:53;;;;;;;5.45;1.38;;;15.10;96.20;;;;;;4991797;28;20042;-69
2022/05/21 05:53:19;;;;;;;0.98;0.80;;;15.10;96.10;;;;;;4991416;28;20041;-70
2022/05/21 05:55:44;;;;;;;6.00;1.60;;;15.20;96.00;;;;;;4990863;28;20602;-70
2022/05/21 06:00:54;;;;;;;7.13;1.70;;;15.20;95.90;;;;;;4990330;28;20031;-69
2022/05/21 06:03:23;;;;;;;9.18;1.85;;;15.30;95.90;;;;;;4991295;28;20371;-70
2022/05/21 06:05:50;;;;;;;2.72;1.27;;;15.30;95.80;;;;;;4993049;28;20034;-68
2022/05/21 06:08:16;;;;;;;2.92;1.38;;;15.30;95.80;;;;;;4991191;28;20027;-68
2022/05/21 06:10:45;;;;;;;3.13;1.38;;;15.30;95.80;;;;;;4993614;28;20129;-69
2022/05/21 06:13:13;;;;;;;7.35;1.70;;;15.30;95.70;;;;;;4996284;28;20037;-69
2022/05/21 06:15:38;;;;;;;2.42;1.08;;;15.30;95.70;;;;;;4985763;28;20479;-68
2022/05/21 06:18:22;;;;;;;5.55;1.90;;;15.40;95.70;;;;;;4991825;28;20038;-68
2022/05/21 06:20:49;;;;;;;3.13;0.90;;;15.40;95.70;;;;;;5004560;28;20452;-68
2022/05/21 06:23:15;;;;;;;2.80;1.15;;;15.40;95.60;;;;;;5001979;28;20033;-68
2022/05/21 06:25:40;;;;;;;4.53;2.00;;;15.40;95.60;;;;;;5001153;28;20485;-68
2022/05/21 06:28:07;;;;;;;4.93;1.35;;;15.40;95.60;;;;;;4996226;28;20027;-68
2022/05/21 06:30:35;;;;;;;1.17;0.82;;;15.50;95.60;;;;;;4994811;28;20537;-69
2022/05/21 06:33:18;;;;;;;3.13;1.77;;;15.40;95.50;;;;;;4992435;28;20454;-68
2022/05/21 06:35:48;;;;;;;4.93;1.27;;;15.50;95.50;;;;;;4994835;28;20049;-68
2022/05/21 06:38:15;;;;;;;11.70;2.15;;;15.50;95.50;;;;;;4993860;28;20030;-70
2022/05/21 06:40:41;;;;;;;8.50;2.10;;;15.50;95.50;;;;;;4994518;28;20453;-72
2022/05/21 06:43:09;;;;;;;1.95;1.40;;;15.60;95.50;;;;;;4993107;28;20050;-70
2022/05/21 06:45:35;;;;;;;5.18;1.50;;;15.60;95.50;;;;;;4991628;28;20034;-70
2022/05/21 06:48:04;;;;;;;2.33;1.58;;;15.60;95.40;;;;;;4994144;28;20061;-70
2022/05/21 06:50:30;;;;;;;7.72;1.70;;;15.70;95.40;;;;;;4994130;28;20068;-70
2022/05/21 06:52:56;;;;;;;9.85;1.90;;;15.70;95.40;;;;;;4993008;28;20459;-70
2022/05/21 06:55:22;;;;;;;6.40;1.83;;;15.70;95.40;;;;;;4992222;28;20026;-70
2022/05/21 06:57:49;;;;;;;9.55;2.40;;;15.80;95.50;;;;;;4992304;28;20029;-70
2022/05/21 07:00:17;;;;;;;4.15;1.35;;;15.70;95.40;;;;;;4993649;28;20113;-70
2022/05/21 07:02:43;;;;;;;17.02;1.25;;;15.70;95.40;;;;;;4993054;28;20027;-69
2022/05/21 07:07:53;;;;;;;6.30;1.50;;;15.70;95.40;;;;;;4989913;28;20022;-70
2022/05/21 07:10:25;;;;;;;6.75;2.20;;;15.70;95.40;;;;;;4991403;28;21163;-69
2022/05/21 07:12:51;;;;;;;1.92;1.10;;;15.70;95.30;;;;;;4990217;28;20046;-69
2022/05/21 07:15:18;;;;;;;5.25;2.25;;;15.70;95.30;;;;;;4991135;28;20031;-69
2022/05/21 07:17:45;;;;;;;5.85;1.92;;;15.80;95.20;;;;;;4990928;28;20034;-69
2022/05/21 07:20:16;;;;;;;5.90;1.83;;;15.80;95.20;;;;;;4985900;28;20050;-70
2022/05/21 07:22:45;;;;;;;6.43;1.80;;;15.80;95.20;;;;;;4987578;28;20038;-66
2022/05/21 07:25:14;;;;;;;5.75;1.48;;;15.80;95.20;;;;;;4989472;28;20038;-66
2022/05/21 07:27:40;;;;;;;5.70;2.05;;;15.90;95.20;;;;;;4985010;28;20042;-65
2022/05/21 07:30:07;;;;;;;5.40;1.48;;;15.90;95.10;;;;;;4990011;28;20084;-66
2022/05/21 07:32:33;;;;;;;5.38;1.80;;;15.90;95.00;;;;;;4989695;28;20034;-66
2022/05/21 07:35:08;;;;;;;2.72;1.35;;;16.00;95.10;;;;;;4989356;28;20081;-67
2022/05/21 07:37:35;;;;;;;7.43;2.40;;;16.00;95.10;;;;;;4989572;28;20048;-67
2022/05/21 07:40:02;;;;;;;4.15;2.15;;;16.00;95.30;;;;;;4988660;28;20105;-67
2022/05/21 07:42:29;;;;;;;10.90;1.90;;;16.10;95.00;;;;;;4988604;28;20030;-63
2022/05/21 07:44:56;;;;;;;5.70;1.77;;;16.10;94.90;;;;;;4989620;28;20434;-63
2022/05/21 07:47:24;;;;;;;8.93;1.70;;;16.20;94.80;;;;;;4991973;28;20030;-63
2022/05/21 07:49:56;;;;;;;4.50;1.40;;;16.20;94.70;;;;;;4990245;28;20457;-67
2022/05/21 07:52:22;;;;;;;5.88;0.47;;;16.20;94.70;;;;;;4992959;28;20498;-67
2022/05/21 07:54:48;;;;;;;4.40;1.65;;;16.30;94.70;;;;;;4992388;28;20098;-67
2022/05/21 07:57:14;;;;;;;6.15;1.42;;;16.30;94.60;;;;;;4992981;28;20034;-67
2022/05/21 07:59:40;;;;;;;8.38;1.50;;;16.30;94.50;;;;;;4993646;28;20126;-67
2022/05/21 08:02:13;;;;;;;6.57;2.25;;;16.30;94.50;;;;;;4993423;28;20109;-69
2022/05/21 08:04:44;;;;;;;7.68;2.50;;;16.40;94.50;;;;;;4992451;28;20509;-69
2022/05/21 08:07:10;;;;;;;3.72;1.75;;;16.40;94.50;;;;;;4991692;28;20042;-69
2022/05/21 08:09:36;;;;;;;3.33;1.20;;;16.40;94.40;;;;;;4990577;28;20050;-69
2022/05/21 08:12:03;;;;;;;2.63;1.02;;;16.40;94.40;;;;;;4991594;28;20042;-69
2022/05/21 08:14:28;;;;;;;5.28;1.25;;;16.40;94.30;;;;;;4990951;28;20459;-69
2022/05/21 08:16:54;;;;;;;3.67;1.70;;;16.50;94.30;;;;;;4993273;28;20042;-69
2022/05/21 08:19:20;;;;;;;9.05;1.90;;;16.50;94.30;;;;;;4993576;28;20528;-65
2022/05/21 08:21:46;;;;;;;8.10;1.58;;;16.60;94.30;;;;;;4993150;28;20478;-67
2022/05/21 08:27:02;;;;;;;7.60;1.48;;;16.60;94.00;;;;;;4991512;28;20474;-66
2022/05/21 08:29:31;;;;;;;;;;;16.60;94.00;;;;;;4991465;28;20026;-66
2022/05/21 08:31:57;;;;;;;7.22;1.88;;;16.60;94.00;;;;;;4987962;28;20032;-65
2022/05/21 08:34:24;;;;;;;3.92;1.67;;;16.60;94.30;;;;;;4987028;28;20061;-66
2022/05/21 08:36:50;;;;;;;10.05;1.75;;;16.50;94.10;;;;;;4991196;28;20068;-66
2022/05/21 08:39:17;;;;;;;4.20;1.98;;;16.50;94.10;;;;;;4990499;28;20062;-66
2022/05/21 08:41:52;;;;;;;10.60;2.65;;;16.50;94.10;;;;;;4990323;28;20034;-66
2022/05/21 08:44:38;;;;;;;6.28;2.17;;;16.60;94.10;;;;;;4990262;28;20030;-66
2022/05/21 08:47:26;;;;;;;9.93;1.98;;;16.60;93.90;;;;;;4990920;28;20026;-66
2022/05/21 08:49:55;;;;;;;10.88;1.27;;;16.70;93.80;;;;;;4989667;28;20121;-66
2022/05/21 08:52:33;;;;;;;9.88;1.92;;;16.70;93.80;;;;;;4991606;28;20038;-66
2022/05/21 08:55:05;;;;;;;14.80;2.97;;;16.80;93.60;;;;;;4991014;28;20470;-66
2022/05/21 08:57:44;;;;;;;5.25;1.70;;;16.80;93.60;;;;;;4989561;28;20045;-66
2022/05/21 09:00:13;;;;;;;5.55;1.60;;;16.90;93.40;;;;;;4991545;28;20303;-66
2022/05/21 09:02:40;;;;;;;5.03;1.42;;;16.90;93.40;;;;;;4992250;28;20026;-66
2022/05/21 09:05:09;;;;;;;5.95;1.55;;;16.90;93.60;;;;;;4991455;28;20386;-65
2022/05/21 09:08:09;;;;;;;1.83;0.90;;;16.90;93.50;;;;;;4992041;28;20486;-65
2022/05/21 09:10:53;;;;;;;15.27;2.95;;;17.00;93.50;;;;;;4965418;28;20046;-66
2022/05/21 09:13:35;;;;;;;12.93;2.35;;;17.00;93.50;;;;;;4992198;28;20030;-65
2022/05/21 09:18:46;;;;;;;16.67;2.20;;;17.10;93.40;;;;;;4992906;28;20045;-66
2022/05/21 09:21:18;;;;;;;7.60;1.95;;;17.20;93.20;;;;;;4992311;28;20390;-66
2022/05/21 09:23:56;;;;;;;6.40;1.27;;;17.30;93.20;;;;;;4993163;28;20108;-65
2022/05/21 09:26:26;;;;;;;16.58;2.13;;;17.30;93.00;;;;;;4991889;28;20033;-66
2022/05/21 09:28:52;;;;;;;5.22;1.90;;;17.30;93.00;;;;;;4991651;28;20038;-66
2022/05/21 09:31:31;;;;;;;9.32;1.65;;;17.40;93.00;;;;;;4991791;28;20114;-66
2022/05/21 09:34:14;;;;;;;12.10;2.50;;;17.50;92.90;;;;;;4991188;28;20089;-65
2022/05/21 09:36:40;;;;;;;6.57;2.03;;;17.50;92.80;;;;;;4991665;28;20110;-65
2022/05/21 09:39:06;;;;;;;5.25;1.38;;;17.60;92.80;;;;;;4991206;28;20740;-65
2022/05/21 09:41:36;;;;;;;11.60;2.60;;;17.70;92.80;;;;;;4992117;28;20030;-65
2022/05/21 09:47:22;;;;;;;9.20;1.48;;;17.70;92.60;;;;;;4994300;28;20660;-66
2022/05/21 09:50:06;;;;;;;12.15;1.83;;;17.80;92.60;;;;;;4991522;28;20089;-66
2022/05/21 09:52:34;;;;;;;4.32;1.42;;;17.90;92.50;;;;;;4994128;28;20113;-66
2022/05/21 09:55:01;;;;;;;4.93;1.52;;;17.90;92.50;;;;;;4992451;28;20574;-66
2022/05/21 09:57:34;;;;;;;6.28;1.73;;;17.90;92.40;;;;;;4992764;28;20045;-66
2022/05/21 10:00:23;;;;;;;2.03;1.00;;;17.90;92.30;;;;;;4994111;28;20113;-63
2022/05/21 10:02:52;;;;;;;5.45;1.65;;;17.80;92.40;;;;;;4993498;28;20097;-72
2022/05/21 10:05:35;;;;;;;2.55;1.02;;;17.80;92.40;;;;;;4995869;28;20093;-65
2022/05/21 10:11:27;;;;;;;4.90;1.42;;;17.80;92.50;;;;;;4984457;28;20517;-65
2022/05/21 10:14:01;;;;;;;14.88;2.40;;;17.80;92.60;;;;;;4995680;28;20031;-65
2022/05/21 10:16:45;;;;;;;13.27;2.00;;;17.80;92.40;;;;;;4995369;28;20030;-65
2022/05/21 10:19:21;;;;;;;10.13;2.15;;;17.90;92.40;;;;;;4984003;28;20034;-64
2022/05/21 10:22:05;;;;;;;9.82;2.22;;;18.00;92.00;;;;;;4995928;28;20038;-64
2022/05/21 10:25:01;;;;;;;7.93;1.73;;;18.10;91.90;;;;;;4993422;28;20092;-65
2022/05/21 10:27:43;;;;;;;12.93;2.47;;;18.20;91.70;;;;;;4992232;28;20061;-65
2022/05/21 10:30:13;;;;;;;17.63;3.45;;;18.20;92.00;;;;;;4991750;28;20049;-65
2022/05/21 10:33:04;;;;;;;6.85;1.85;;;18.30;92.00;;;;;;4993399;28;20038;-65
2022/05/21 10:35:29;;;;;;;15.48;2.75;;;18.40;92.00;;;;;;4992145;28;20247;-65
2022/05/21 10:38:13;;;;;;;10.93;2.60;;;18.40;91.80;;;;;;4991532;28;20030;-65
2022/05/21 10:40:52;;;;;;;5.32;1.50;;;18.40;92.00;;;;;;4992490;28;20032;-66
2022/05/21 10:43:37;;;;;;;5.93;2.20;;;18.50;92.00;;;;;;4992000;28;20045;-66
2022/05/21 10:46:09;;;;;;;8.77;1.30;;;18.50;92.00;;;;;;4992035;28;20390;-65
2022/05/21 10:49:07;;;;;;;10.02;1.65;;;18.50;91.70;;;;;;4992058;28;20543;-66
2022/05/21 10:51:40;;;;;;;5.25;1.42;;;18.40;91.60;;;;;;4991967;28;20042;-65
2022/05/21 10:54:39;;;;;;;1.50;0.90;;;18.40;91.60;;;;;;4993287;28;20026;-65
2022/05/21 10:57:20;;;;;;;10.32;2.22;;;18.40;91.60;;;;;;4992904;28;20039;-67
2022/05/21 11:00:13;;;;;;;4.38;1.15;;;18.40;91.60;;;;;;4992612;28;20492;-67
2022/05/21 11:02:55;;;;;;;5.68;1.00;;;18.40;91.50;;;;;;4993020;28;20117;-66
2022/05/21 11:05:42;;;;;;;2.30;1.00;;;18.40;91.40;;;;;;4992547;28;20410;-67
2022/05/21 11:08:28;;;;;;;6.28;1.48;;;18.50;91.60;;;;;;4990685;28;20514;-67
2022/05/21 11:11:09;;;;;;;1.25;0.60;;;18.50;91.40;;;;;;4959625;28;20038;-68
2022/05/21 11:13:55;;;;;;;2.63;0.95;;;18.50;91.40;;;;;;4991128;28;20125;-69
2022/05/21 11:16:29;;;;;;;2.97;1.05;;;18.60;91.40;;;;;;4990234;28;20474;-67
2022/05/21 11:19:08;;;;;;;4.15;1.27;;;18.60;91.50;;;;;;4989455;28;20121;-67
2022/05/21 11:21:39;;;;;;;4.97;1.83;;;18.60;91.00;;;;;;4990745;28;20036;-66
2022/05/21 11:24:10;;;;;;;6.95;2.03;;;18.70;90.90;;;;;;4991528;28;20026;-66
2022/05/21 11:26:55;;;;;;;7.45;1.60;;;18.70;90.90;;;;;;4991042;28;20478;-66
2022/05/21 11:29:47;;;;;;;8.93;1.67;;;18.80;91.00;;;;;;4993289;28;20033;-66
2022/05/21 11:37:57;;;;;;;2.38;0.88;;;18.90;90.50;;;;;;4985369;28;20034;-68
2022/05/21 11:46:52;;;;;;;3.63;1.05;;;18.80;90.50;;;;;;4991400;28;20031;-68
2022/05/21 11:49:44;;;;;;;4.68;1.98;;;18.90;90.80;;;;;;4991408;28;20063;-69
2022/05/21 11:52:34;;;;;;;8.85;2.13;;;18.90;90.80;;;;;;4991765;28;20034;-68
2022/05/21 11:55:01;;;;;;;9.68;2.28;;;19.00;90.60;;;;;;4991211;28;20026;-68
2022/05/21 11:57:38;;;;;;;8.60;1.58;;;19.10;90.70;;;;;;4991568;28;20549;-68
2022/05/21 12:00:30;;;;;;;7.82;2.00;;;19.20;90.70;;;;;;4991797;28;20490;-68
2022/05/21 12:02:58;;;;;;;7.93;1.77;;;19.20;90.60;;;;;;4989188;28;20034;-68
2022/05/21 12:05:46;;;;;;;12.55;2.42;;;19.20;90.80;;;;;;4992353;28;20466;-68
2022/05/21 12:08:43;;;;;;;15.82;2.30;;;19.40;90.80;;;;;;4991828;28;20779;-67
2022/05/21 12:11:10;;;;;;;11.77;2.08;;;19.40;90.60;;;;;;4992843;28;20061;-67
2022/05/21 12:13:39;;;;;;;6.25;1.50;;;19.40;90.60;;;;;;4994000;28;20026;-67
2022/05/21 12:16:16;;;;;;;6.38;1.40;;;19.40;90.70;;;;;;4993041;28;20035;-67
2022/05/21 12:18:57;;;;;;;2.63;0.70;;;19.50;90.20;;;;;;4992025;28;20037;-67
2022/05/21 12:21:43;;;;;;;1.75;1.52;;;19.50;90.40;;;;;;4990957;28;20031;-67
2022/05/21 12:24:40;;;;;;;14.05;1.80;;;19.60;90.20;;;;;;4990627;28;20034;-66
2022/05/21 12:27:22;;;;;;;2.67;1.08;;;19.50;90.00;;;;;;4992667;28;20477;-67
2022/05/21 12:29:54;;;;;;;6.80;1.40;;;19.60;89.60;;;;;;4990193;28;20030;-67
2022/05/21 12:32:24;;;;;;;4.22;0.40;;;19.50;89.70;;;;;;4991331;28;20066;-67
2022/05/21 12:35:07;;;;;;;3.72;1.20;;;19.60;90.00;;;;;;4991047;28;20375;-66
2022/05/21 12:37:40;;;;;;;5.38;0.77;;;19.60;88.80;;;;;;4990200;28;20030;-67
2022/05/21 12:40:12;;;;;;;5.10;0.93;;;19.60;89.40;;;;;;4990902;28;20034;-67
2022/05/21 12:42:46;;;;;;;9.13;1.50;;;19.60;88.70;;;;;;4991054;28;20855;-67
2022/05/21 12:45:29;;;;;;;12.93;2.00;;;19.60;88.10;;;;;;4990470;28;20022;-67
2022/05/21 12:48:08;;;;;;;11.50;1.60;;;19.60;88.60;;;;;;4991472;28;20364;-67
2022/05/21 12:50:35;;;;;;;4.55;1.20;;;19.60;88.90;;;;;;4989967;28;20302;-67
2022/05/21 12:53:01;;;;;;;3.50;1.15;;;19.70;89.80;;;;;;4990788;28;20061;-67
2022/05/21 12:55:33;;;;;;;1.75;0.70;;;19.80;90.00;;;;;;4990877;28;20498;-67
2022/05/21 12:58:08;;;;;;;6.25;1.95;;;19.80;90.10;;;;;;4990179;28;20030;-67
2022/05/21 13:00:35;;;;;;;2.97;0.82;;;19.90;89.60;;;;;;4988839;28;20057;-67
2022/05/21 13:03:08;;;;;;;2.58;1.23;;;19.90;90.10;;;;;;4989721;28;20030;-67
2022/05/21 13:05:36;;;;;;;;;;;20.00;90.10;;;;;;4990900;28;20037;-66
2022/05/21 13:08:03;;;;;;;12.02;1.80;;;20.00;90.00;;;;;;4990476;28;19909;-66
2022/05/21 13:10:34;;;;;;;7.25;1.75;;;20.10;89.60;;;;;;4990710;28;20053;-66
2022/05/21 13:13:08;;;;;;;8.88;1.80;;;20.20;88.60;;;;;;4990150;28;20031;-66
2022/05/21 13:15:41;;;;;;;5.00;1.65;;;20.20;88.40;;;;;;4989094;28;20042;-66
2022/05/21 13:18:44;;;;;;;7.88;1.85;;;20.20;88.40;;;;;;4988310;28;20045;-67
2022/05/21 13:21:25;;;;;;;4.13;1.50;;;20.30;89.00;;;;;;4993087;28;20038;-66
2022/05/21 13:24:16;;;;;;;14.00;2.22;;;20.40;88.20;;;;;;4992952;28;20034;-66
2022/05/21 13:26:42;;;;;;;7.82;1.60;;;20.40;87.50;;;;;;4993810;28;20046;-67
2022/05/21 13:29:26;;;;;;;6.47;1.63;;;20.50;88.00;;;;;;4994520;28;20023;-66
2022/05/21 13:31:52;;;;;;;10.75;2.03;;;20.60;87.70;;;;;;4994733;28;20493;-68
2022/05/21 13:34:21;;;;;;;9.38;1.90;;;20.60;88.90;;;;;;4993905;28;20117;-65
2022/05/21 13:36:53;;;;;;;5.60;1.95;;;20.60;87.60;;;;;;4994655;28;20390;-65
2022/05/21 13:39:29;;;;;;;8.70;1.70;;;20.70;88.10;;;;;;4993762;28;20034;-65
2022/05/21 13:42:04;;;;;;;2.53;0.93;;;20.70;87.90;;;;;;4994348;28;20398;-65
2022/05/21 13:44:35;;;;;;;16.23;1.98;;;20.80;89.00;;;;;;4993396;28;20121;-65